Time;durP1;ratioP1;P1;durP2;ratioP2;P2;SDS_P1;SDS_P2;PMS_P1;PMS_P2;Temp;Humidity;BMP_temperature;BMP_pressure;BME280_temperature;BME280_humidity;BME280_pressure;Samples;Min_cycle;Max_cycle;Signal;HPM_P1;HPM_P2
2022/01/12 00:00:28;;;;;;;5.47;3.33;;;;;;;;;;6207802;23;20520;-48
2022/01/12 00:02:54;;;;;;;6.85;3.65;;;;;;;;;;6235005;23;20023;-46
2022/01/12 00:05:19;;;;;;;5.68;3.15;;;;;;;;;;6234454;23;20024;-47
2022/01/12 00:07:47;;;;;;;7.43;3.25;;;;;;;;;;6234418;23;20012;-49
2022/01/12 00:10:13;;;;;;;5.53;3.08;;;;;;;;;;6234237;23;20093;-46
2022/01/12 00:12:38;;;;;;;5.57;2.67;;;;;;;;;;6234675;23;20016;-46
2022/01/12 00:15:03;;;;;;;6.38;2.88;;;;;;;;;;6235323;23;20359;-46
2022/01/12 00:17:29;;;;;;;5.22;2.50;;;;;;;;;;6233953;23;20332;-47
2022/01/12 00:19:54;;;;;;;6.03;3.25;;;;;;;;;;6232554;23;20016;-46
2022/01/12 00:22:19;;;;;;;2.20;1.88;;;;;;;;;;6232459;23;20016;-48
2022/01/12 00:35:31;;;;;;;3.60;2.13;;;;;;;;;;6237658;23;20870;-49
2022/01/12 00:37:56;;;;;;;5.78;2.40;;;;;;;;;;6237416;23;20016;-46
2022/01/12 00:40:21;;;;;;;3.97;2.67;;;;;;;;;;6237112;23;20435;-48
2022/01/12 00:42:47;;;;;;;4.72;2.13;;;;;;;;;;6237412;23;20609;-49
2022/01/12 00:45:12;;;;;;;5.75;2.38;;;;;;;;;;6237564;23;20027;-45
2022/01/12 00:47:38;;;;;;;5.13;2.97;;;;;;;;;;6237377;23;20078;-46
2022/01/12 00:50:03;;;;;;;6.85;2.90;;;;;;;;;;6237595;23;20434;-49
2022/01/12 00:52:28;;;;;;;4.32;2.63;;;;;;;;;;6236421;23;20454;-47
2022/01/12 00:54:54;;;;;;;5.22;2.78;;;;;;;;;;6237873;23;20020;-47
2022/01/12 00:57:19;;;;;;;12.82;4.57;;;;;;;;;;6235993;23;20442;-47
2022/01/12 00:59:44;;;;;;;4.10;2.47;;;;;;;;;;6237811;23;20107;-48
2022/01/12 01:02:10;;;;;;;12.05;2.58;;;;;;;;;;6237007;23;20075;-48
2022/01/12 01:04:35;;;;;;;5.47;2.25;;;;;;;;;;6237040;23;20008;-48
2022/01/12 01:07:00;;;;;;;3.65;2.47;;;;;;;;;;6209825;23;20008;-46
2022/01/12 01:09:26;;;;;;;3.40;2.50;;;;;;;;;;6236680;23;20069;-47
2022/01/12 01:11:51;;;;;;;4.35;2.38;;;;;;;;;;6237787;23;20453;-46
2022/01/12 01:14:26;;;;;;;4.68;2.05;;;;;;;;;;6236407;23;20077;-49
2022/01/12 01:25:22;;;;;;;2.70;2.28;;;;;;;;;;6237061;23;20100;-49
2022/01/12 01:25:31;;;;;;;6.05;2.42;;;;;;;;;;6237351;23;20023;-47
2022/01/12 01:27:56;;;;;;;4.30;2.72;;;;;;;;;;6237715;23;20022;-47
2022/01/12 01:30:22;;;;;;;5.55;2.40;;;;;;;;;;6236021;23;20451;-47
2022/01/12 01:32:48;;;;;;;4.57;2.30;;;;;;;;;;6210517;23;20066;-48
2022/01/12 01:35:13;;;;;;;4.93;2.30;;;;;;;;;;6235584;23;20012;-46
2022/01/12 01:37:41;;;;;;;8.68;3.40;;;;;;;;;;6237011;23;20581;-47
2022/01/12 01:40:07;;;;;;;6.57;2.72;;;;;;;;;;6236835;23;20012;-48
2022/01/12 01:42:53;;;;;;;6.75;2.10;;;;;;;;;;6236741;23;20014;-47
2022/01/12 01:53:37;;;;;;;4.45;2.17;;;;;;;;;;6212556;23;20477;-46
2022/01/12 01:56:03;;;;;;;4.57;2.20;;;;;;;;;;6236599;23;20016;-46
2022/01/12 01:58:28;;;;;;;3.33;1.58;;;;;;;;;;6209436;23;20600;-47
2022/01/12 02:00:53;;;;;;;2.40;1.98;;;;;;;;;;6236425;23;20012;-48
2022/01/12 02:03:19;;;;;;;8.20;1.85;;;;;;;;;;6236528;23;20090;-46
2022/01/12 02:05:44;;;;;;;2.47;1.88;;;;;;;;;;6235897;23;20465;-47
2022/01/12 02:08:10;;;;;;;7.13;2.17;;;;;;;;;;6237083;23;20012;-46
2022/01/12 02:10:35;;;;;;;2.10;1.90;;;;;;;;;;6235323;23;20501;-46
2022/01/12 02:13:01;;;;;;;4.20;2.30;;;;;;;;;;6210407;23;20066;-49
2022/01/12 02:15:26;;;;;;;3.97;2.10;;;;;;;;;;6235584;23;20024;-46
2022/01/12 02:18:05;;;;;;;6.65;2.08;;;;;;;;;;6210005;23;20102;-47
2022/01/12 02:36:54;;;;;;;2.03;1.83;;;;;;;;;;6210693;23;20043;-46
2022/01/12 02:42:03;;;;;;;3.15;2.20;;;;;;;;;;6237302;23;20026;-46
2022/01/12 02:55:23;;;;;;;4.43;2.05;;;;;;;;;;6236127;23;20401;-48
2022/01/12 02:57:48;;;;;;;4.57;1.98;;;;;;;;;;6236059;23;20442;-48
2022/01/12 03:00:16;;;;;;;4.57;2.40;;;;;;;;;;6236161;23;20088;-48
2022/01/12 03:02:43;;;;;;;3.40;1.88;;;;;;;;;;6236200;23;20016;-48
2022/01/12 03:07:57;;;;;;;3.92;2.00;;;;;;;;;;6236170;23;20129;-48
2022/01/12 03:10:25;;;;;;;7.63;1.80;;;;;;;;;;6235243;23;20016;-46
2022/01/12 03:12:50;;;;;;;2.50;2.03;;;;;;;;;;6236685;23;20535;-48
2022/01/12 03:15:16;;;;;;;7.10;2.15;;;;;;;;;;6235372;23;20013;-46
2022/01/12 03:17:41;;;;;;;7.53;2.47;;;;;;;;;;6236756;23;20017;-48
2022/01/12 03:20:07;;;;;;;4.55;2.13;;;;;;;;;;6235355;23;20018;-48
2022/01/12 03:22:32;;;;;;;2.25;1.70;;;;;;;;;;6235702;23;20443;-46
2022/01/12 03:24:57;;;;;;;3.55;2.10;;;;;;;;;;6235943;23;20022;-46
2022/01/12 03:27:26;;;;;;;3.63;1.75;;;;;;;;;;6235851;23;20559;-47
2022/01/12 03:29:55;;;;;;;3.88;1.40;;;;;;;;;;6236297;23;20016;-46
2022/01/12 03:32:27;;;;;;;5.18;2.22;;;;;;;;;;6235395;23;20012;-46
2022/01/12 03:35:05;;;;;;;2.38;1.83;;;;;;;;;;6235824;23;20039;-46
2022/01/12 03:37:42;;;;;;;5.35;1.80;;;;;;;;;;6235610;23;20044;-46
2022/01/12 03:40:09;;;;;;;4.45;1.83;;;;;;;;;;6235326;23;20015;-48
2022/01/12 03:42:34;;;;;;;5.13;2.05;;;;;;;;;;6235707;23;20012;-46
2022/01/12 03:44:59;;;;;;;2.28;1.48;;;;;;;;;;6235880;23;20324;-49
2022/01/12 03:47:25;;;;;;;4.28;1.85;;;;;;;;;;6235272;23;20012;-46
2022/01/12 03:49:50;;;;;;;5.15;1.98;;;;;;;;;;6235651;23;20199;-46
2022/01/12 03:52:15;;;;;;;2.13;1.40;;;;;;;;;;6235964;23;20043;-46
2022/01/12 03:54:41;;;;;;;3.05;1.65;;;;;;;;;;6236033;23;20024;-46
2022/01/12 03:57:06;;;;;;;1.58;1.40;;;;;;;;;;6236564;23;20756;-47
2022/01/12 03:59:31;;;;;;;3.30;1.73;;;;;;;;;;6234982;23;20019;-47
2022/01/12 04:01:57;;;;;;;4.30;2.22;;;;;;;;;;6236500;23;20016;-48
2022/01/12 04:04:30;;;;;;;4.20;2.08;;;;;;;;;;6234967;23;20012;-47
2022/01/12 04:09:39;;;;;;;4.80;2.22;;;;;;;;;;6210971;23;20346;-47
2022/01/12 04:12:04;;;;;;;4.50;1.70;;;;;;;;;;6235848;23;20455;-47
2022/01/12 04:14:30;;;;;;;4.53;2.33;;;;;;;;;;6236447;23;20016;-47
2022/01/12 04:16:55;;;;;;;3.05;2.20;;;;;;;;;;6237597;23;20031;-48
2022/01/12 04:19:23;;;;;;;2.00;1.52;;;;;;;;;;6237460;23;20074;-47
2022/01/12 04:21:49;;;;;;;3.97;1.83;;;;;;;;;;6238082;23;20016;-46
2022/01/12 04:24:15;;;;;;;1.50;1.40;;;;;;;;;;6237821;23;20054;-48
2022/01/12 04:26:40;;;;;;;3.97;1.98;;;;;;;;;;6237409;23;20019;-46
2022/01/12 04:29:07;;;;;;;5.28;2.45;;;;;;;;;;6237916;23;20478;-48
2022/01/12 04:31:32;;;;;;;4.60;2.28;;;;;;;;;;6236844;23;20469;-47
2022/01/12 04:33:58;;;;;;;2.85;2.35;;;;;;;;;;6238385;23;20118;-47
2022/01/12 04:36:23;;;;;;;3.05;2.08;;;;;;;;;;6236403;23;20515;-47
2022/01/12 04:38:48;;;;;;;5.38;2.10;;;;;;;;;;6238034;23;20019;-52
2022/01/12 04:41:13;;;;;;;3.72;2.42;;;;;;;;;;6236758;23;20020;-50
2022/01/12 04:43:41;;;;;;;3.78;2.50;;;;;;;;;;6237451;23;20016;-47
2022/01/12 04:48:49;;;;;;;3.30;1.90;;;;;;;;;;6237109;23;20039;-47
2022/01/12 04:51:14;;;;;;;1.90;1.52;;;;;;;;;;6236382;23;20332;-46
2022/01/12 04:53:41;;;;;;;3.17;2.05;;;;;;;;;;6237125;23;20051;-49
2022/01/12 04:56:06;;;;;;;3.92;1.67;;;;;;;;;;6237186;23;20011;-48
2022/01/12 04:58:32;;;;;;;5.70;1.85;;;;;;;;;;6236876;23;20012;-47
2022/01/12 05:01:05;;;;;;;13.35;2.10;;;;;;;;;;6237116;23;20095;-45
2022/01/12 05:06:42;;;;;;;3.20;1.83;;;;;;;;;;6237393;23;20095;-46
2022/01/12 05:09:15;;;;;;;2.28;1.63;;;;;;;;;;6236669;23;20039;-48
2022/01/12 05:14:25;;;;;;;4.38;2.20;;;;;;;;;;6236592;23;20038;-46
2022/01/12 05:16:50;;;;;;;4.13;2.10;;;;;;;;;;6237486;23;20008;-47
2022/01/12 05:19:16;;;;;;;2.60;1.95;;;;;;;;;;6237153;23;20077;-46
2022/01/12 05:21:41;;;;;;;3.10;1.58;;;;;;;;;;6237011;23;20057;-46
2022/01/12 05:24:07;;;;;;;13.05;2.97;;;;;;;;;;6237686;23;20320;-47
2022/01/12 05:26:35;;;;;;;2.40;2.00;;;;;;;;;;6236291;23;20011;-46
2022/01/12 05:29:00;;;;;;;3.15;1.85;;;;;;;;;;6237520;23;20008;-46
2022/01/12 05:31:26;;;;;;;2.42;2.08;;;;;;;;;;6235874;23;20413;-46
2022/01/12 05:33:51;;;;;;;2.70;2.22;;;;;;;;;;6210985;23;20013;-46
2022/01/12 05:36:18;;;;;;;3.65;2.35;;;;;;;;;;6236181;23;20040;-46
2022/01/12 05:38:44;;;;;;;3.47;2.30;;;;;;;;;;6237501;23;20008;-47
2022/01/12 05:41:09;;;;;;;2.90;2.30;;;;;;;;;;6236741;23;20012;-47
2022/01/12 05:43:37;;;;;;;5.22;2.78;;;;;;;;;;6236734;23;20011;-48
2022/01/12 05:46:10;;;;;;;3.58;2.38;;;;;;;;;;6236493;23;20485;-46
2022/01/12 05:51:19;;;;;;;3.90;2.65;;;;;;;;;;6235890;23;20035;-46
2022/01/12 05:53:45;;;;;;;3.30;3.00;;;;;;;;;;6237301;23;20016;-48
2022/01/12 05:56:10;;;;;;;3.80;2.63;;;;;;;;;;6236502;23;20482;-49
2022/01/12 05:58:35;;;;;;;4.70;2.17;;;;;;;;;;6236555;23;20052;-48
2022/01/12 06:01:00;;;;;;;5.03;2.85;;;;;;;;;;6236640;23;20057;-47
2022/01/12 06:03:26;;;;;;;2.95;2.53;;;;;;;;;;6236400;23;20100;-47
2022/01/12 06:05:52;;;;;;;7.90;2.90;;;;;;;;;;6236337;23;20012;-46
2022/01/12 06:08:17;;;;;;;3.42;2.78;;;;;;;;;;6236517;23;20035;-46
2022/01/12 06:10:42;;;;;;;4.60;2.40;;;;;;;;;;6236268;23;20512;-48
2022/01/12 06:13:08;;;;;;;3.50;2.50;;;;;;;;;;6237517;23;20036;-46
2022/01/12 06:15:33;;;;;;;3.08;2.42;;;;;;;;;;6235521;23;20082;-47
2022/01/12 06:17:58;;;;;;;5.53;2.00;;;;;;;;;;6237049;23;20047;-46
2022/01/12 06:20:23;;;;;;;5.22;2.92;;;;;;;;;;6235669;23;20023;-46
2022/01/12 06:22:49;;;;;;;5.10;2.65;;;;;;;;;;6237136;23;20016;-47
2022/01/12 06:25:15;;;;;;;4.60;3.75;;;;;;;;;;6235582;23;20005;-48
2022/01/12 06:27:50;;;;;;;9.20;2.28;;;;;;;;;;6236729;23;20040;-48
2022/01/12 06:32:53;;;;;;;5.68;2.15;;;;;;;;;;6240049;23;20031;-47
2022/01/12 06:35:19;;;;;;;6.07;2.45;;;;;;;;;;6235578;23;20077;-46
2022/01/12 06:37:44;;;;;;;3.85;2.60;;;;;;;;;;6236675;23;20013;-47
2022/01/12 06:40:10;;;;;;;4.35;2.60;;;;;;;;;;6236408;23;20027;-47
2022/01/12 06:42:35;;;;;;;5.97;2.97;;;;;;;;;;6236101;23;20023;-48
2022/01/12 06:45:00;;;;;;;3.60;2.25;;;;;;;;;;6236477;23;20340;-46
2022/01/12 06:47:25;;;;;;;8.32;2.83;;;;;;;;;;6236190;23;20072;-49
2022/01/12 06:49:51;;;;;;;4.80;3.42;;;;;;;;;;6235758;23;20039;-50
2022/01/12 06:52:16;;;;;;;4.45;2.70;;;;;;;;;;6236285;23;20107;-47
2022/01/12 06:54:41;;;;;;;3.90;3.13;;;;;;;;;;6236607;23;20087;-46
2022/01/12 06:57:07;;;;;;;4.20;2.72;;;;;;;;;;6237277;23;20021;-48
2022/01/12 06:59:32;;;;;;;4.25;2.25;;;;;;;;;;6235334;23;20008;-46
2022/01/12 07:01:57;;;;;;;4.18;2.13;;;;;;;;;;6236497;23;20020;-46
2022/01/12 07:04:24;;;;;;;6.47;3.15;;;;;;;;;;6235355;23;20019;-46
2022/01/12 07:06:50;;;;;;;6.55;2.80;;;;;;;;;;6236530;23;20040;-46
2022/01/12 07:09:15;;;;;;;4.68;2.83;;;;;;;;;;6235162;23;20017;-45
2022/01/12 07:11:42;;;;;;;3.83;3.30;;;;;;;;;;6236778;23;20015;-45
2022/01/12 07:14:07;;;;;;;6.97;3.65;;;;;;;;;;6236153;23;20039;-47
2022/01/12 07:16:32;;;;;;;4.38;2.75;;;;;;;;;;6236110;23;20001;-48
2022/01/12 07:18:59;;;;;;;3.17;2.30;;;;;;;;;;6235626;23;20070;-47
2022/01/12 07:21:25;;;;;;;4.28;2.80;;;;;;;;;;6236151;23;20058;-47
2022/01/12 07:23:54;;;;;;;4.40;2.75;;;;;;;;;;6235988;23;20008;-46
2022/01/12 07:26:19;;;;;;;4.20;2.95;;;;;;;;;;6235355;23;20016;-46
2022/01/12 07:28:45;;;;;;;7.28;2.92;;;;;;;;;;6236256;23;20578;-46
2022/01/12 07:31:10;;;;;;;4.72;2.65;;;;;;;;;;6235165;23;20032;-42
2022/01/12 07:33:35;;;;;;;3.92;2.78;;;;;;;;;;6236836;23;20024;-47
2022/01/12 07:36:01;;;;;;;4.95;3.35;;;;;;;;;;6235954;23;20011;-47
2022/01/12 07:38:26;;;;;;;5.07;3.30;;;;;;;;;;6235816;23;20462;-48
2022/01/12 07:40:51;;;;;;;4.15;3.10;;;;;;;;;;6235427;23;20023;-46
2022/01/12 07:43:18;;;;;;;5.65;3.10;;;;;;;;;;6235706;23;20442;-46
2022/01/12 07:45:43;;;;;;;5.50;3.67;;;;;;;;;;6235589;23;20510;-45
2022/01/12 07:48:09;;;;;;;3.60;2.80;;;;;;;;;;6236642;23;20036;-46
2022/01/12 07:50:34;;;;;;;4.75;3.45;;;;;;;;;;6235926;23;20044;-46
2022/01/12 07:53:00;;;;;;;4.65;3.25;;;;;;;;;;6237749;23;20005;-47
2022/01/12 07:55:25;;;;;;;4.28;3.88;;;;;;;;;;6237417;23;20013;-47
2022/01/12 07:57:51;;;;;;;4.88;3.00;;;;;;;;;;6237776;23;20482;-54
2022/01/12 08:00:17;;;;;;;8.30;3.28;;;;;;;;;;6236666;23;20033;-46
2022/01/12 08:02:42;;;;;;;7.35;4.07;;;;;;;;;;6237537;23;20466;-48
2022/01/12 08:05:08;;;;;;;5.97;3.70;;;;;;;;;;6238658;23;20016;-49
2022/01/12 08:07:36;;;;;;;4.60;3.40;;;;;;;;;;6236489;23;20019;-46
2022/01/12 08:10:02;;;;;;;3.92;3.38;;;;;;;;;;6238381;23;20023;-49
2022/01/12 08:12:27;;;;;;;5.65;3.75;;;;;;;;;;6236480;23;20016;-47
2022/01/12 08:14:52;;;;;;;7.07;3.25;;;;;;;;;;6238270;23;20023;-48
2022/01/12 08:17:17;;;;;;;4.15;3.40;;;;;;;;;;6236558;23;20030;-49
2022/01/12 08:19:43;;;;;;;3.28;2.42;;;;;;;;;;6238142;23;20347;-47
2022/01/12 08:22:09;;;;;;;3.97;2.53;;;;;;;;;;6237580;23;20355;-46
2022/01/12 08:24:34;;;;;;;3.20;2.70;;;;;;;;;;6237944;23;20359;-50
2022/01/12 08:26:59;;;;;;;9.85;3.35;;;;;;;;;;6237363;23;20094;-48
2022/01/12 08:29:27;;;;;;;5.25;2.92;;;;;;;;;;6237354;23;20016;-46
2022/01/12 08:31:52;;;;;;;7.30;2.85;;;;;;;;;;6237702;23;20023;-46
2022/01/12 08:34:17;;;;;;;4.75;2.53;;;;;;;;;;6235942;23;20024;-52
2022/01/12 08:36:42;;;;;;;3.92;2.80;;;;;;;;;;6237862;23;20013;-50
2022/01/12 08:39:08;;;;;;;5.07;3.55;;;;;;;;;;6236405;23;20023;-49
2022/01/12 08:41:34;;;;;;;3.70;3.35;;;;;;;;;;6236383;23;20347;-49
2022/01/12 08:43:59;;;;;;;5.35;3.42;;;;;;;;;;6237597;23;20443;-51
2022/01/12 08:46:25;;;;;;;5.75;3.28;;;;;;;;;;6236387;23;20385;-46
2022/01/12 08:48:50;;;;;;;4.00;2.90;;;;;;;;;;6237400;23;20077;-51
2022/01/12 08:51:15;;;;;;;5.28;2.90;;;;;;;;;;6236491;23;20034;-48
2022/01/12 08:53:41;;;;;;;5.28;3.05;;;;;;;;;;6237346;23;20028;-50
2022/01/12 08:56:07;;;;;;;7.97;3.25;;;;;;;;;;6237240;23;20012;-51
2022/01/12 08:58:32;;;;;;;4.28;3.05;;;;;;;;;;6236962;23;20015;-47
2022/01/12 09:01:03;;;;;;;5.45;3.85;;;;;;;;;;6236917;23;20054;-47
2022/01/12 09:03:28;;;;;;;5.57;3.78;;;;;;;;;;6236711;23;20085;-48
2022/01/12 09:05:53;;;;;;;4.80;3.28;;;;;;;;;;6227642;23;20024;-46
2022/01/12 09:08:19;;;;;;;4.03;3.25;;;;;;;;;;6229449;23;20009;-48
2022/01/12 09:10:44;;;;;;;4.18;3.17;;;;;;;;;;6227403;23;20103;-47
2022/01/12 09:13:09;;;;;;;7.95;3.85;;;;;;;;;;6228359;23;20034;-48
2022/01/12 09:15:34;;;;;;;5.55;3.95;;;;;;;;;;6225814;23;20114;-46
2022/01/12 09:18:00;;;;;;;4.28;3.58;;;;;;;;;;6229336;23;20087;-46
2022/01/12 09:20:25;;;;;;;6.00;4.65;;;;;;;;;;6226174;23;20022;-48
2022/01/12 09:22:50;;;;;;;7.05;4.20;;;;;;;;;;6227806;23;20818;-46
2022/01/12 09:25:16;;;;;;;5.38;4.25;;;;;;;;;;6225990;23;20016;-47
2022/01/12 09:27:42;;;;;;;7.20;4.28;;;;;;;;;;6228694;23;20016;-47
2022/01/12 09:30:09;;;;;;;7.93;5.13;;;;;;;;;;6226849;23;20019;-47
2022/01/12 09:32:34;;;;;;;13.02;4.18;;;;;;;;;;6226927;23;20131;-46
2022/01/12 09:35:00;;;;;;;14.05;5.88;;;;;;;;;;6229870;23;20052;-48
2022/01/12 09:37:25;;;;;;;5.95;3.83;;;;;;;;;;6229317;23;20023;-45
2022/01/12 09:39:50;;;;;;;10.32;4.07;;;;;;;;;;6204076;23;20008;-47
2022/01/12 09:42:16;;;;;;;5.05;4.20;;;;;;;;;;6230045;23;20024;-46
2022/01/12 09:44:46;;;;;;;8.32;3.65;;;;;;;;;;6230275;23;20016;-46
2022/01/12 09:47:11;;;;;;;6.97;4.00;;;;;;;;;;6227976;23;20034;-48
2022/01/12 09:49:37;;;;;;;6.57;3.95;;;;;;;;;;6230310;23;20078;-50
2022/01/12 09:52:03;;;;;;;7.18;4.43;;;;;;;;;;6229595;23;20070;-46
2022/01/12 09:54:28;;;;;;;6.97;4.45;;;;;;;;;;6229654;23;20020;-45
2022/01/12 09:56:54;;;;;;;9.05;5.03;;;;;;;;;;6228535;23;20023;-46
2022/01/12 09:59:20;;;;;;;9.57;4.80;;;;;;;;;;6227171;23;20796;-46
2022/01/12 10:01:47;;;;;;;9.77;5.50;;;;;;;;;;6229157;23;20012;-46
2022/01/12 10:04:12;;;;;;;5.60;4.65;;;;;;;;;;6235780;23;20012;-45
2022/01/12 10:06:42;;;;;;;5.38;3.90;;;;;;;;;;6235181;23;20023;-48
2022/01/12 10:09:08;;;;;;;5.63;4.63;;;;;;;;;;6236220;23;20023;-47
2022/01/12 10:11:33;;;;;;;9.65;6.20;;;;;;;;;;6234477;23;20018;-45
2022/01/12 10:14:00;;;;;;;7.22;5.25;;;;;;;;;;6236368;23;20091;-46
2022/01/12 10:16:28;;;;;;;7.22;5.45;;;;;;;;;;6234817;23;20016;-47
2022/01/12 10:18:55;;;;;;;8.60;5.63;;;;;;;;;;6236092;23;20346;-47
2022/01/12 10:21:37;;;;;;;15.13;6.68;;;;;;;;;;6234780;23;20520;-48
2022/01/12 10:24:07;;;;;;;7.80;6.05;;;;;;;;;;6235448;23;20031;-49
2022/01/12 10:26:36;;;;;;;7.85;6.32;;;;;;;;;;6235187;23;20594;-46
2022/01/12 10:29:06;;;;;;;7.93;6.00;;;;;;;;;;6235674;23;20008;-49
2022/01/12 10:31:45;;;;;;;8.55;5.80;;;;;;;;;;6235365;23;20055;-46
2022/01/12 10:34:10;;;;;;;9.07;5.82;;;;;;;;;;6235216;23;20050;-44
2022/01/12 10:36:36;;;;;;;9.93;5.72;;;;;;;;;;6236053;23;20008;-46
2022/01/12 10:39:09;;;;;;;6.22;5.63;;;;;;;;;;6234822;23;20087;-46
2022/01/12 10:41:34;;;;;;;7.85;5.45;;;;;;;;;;6235446;23;20014;-46
2022/01/12 10:43:59;;;;;;;8.55;5.30;;;;;;;;;;6235104;23;20099;-49
2022/01/12 10:46:26;;;;;;;8.48;5.18;;;;;;;;;;6235157;23;20055;-47
2022/01/12 10:48:52;;;;;;;7.47;4.85;;;;;;;;;;6235072;23;20019;-46
2022/01/12 10:51:22;;;;;;;8.80;4.82;;;;;;;;;;6234683;23;20103;-47
2022/01/12 10:53:48;;;;;;;7.10;4.40;;;;;;;;;;6235427;23;20055;-46
2022/01/12 10:56:15;;;;;;;13.68;4.97;;;;;;;;;;6234214;23;20058;-50
2022/01/12 10:58:42;;;;;;;7.47;5.03;;;;;;;;;;6235636;23;20016;-50
2022/01/12 11:01:08;;;;;;;7.38;4.18;;;;;;;;;;6235199;23;20518;-46
2022/01/12 11:03:33;;;;;;;6.88;4.35;;;;;;;;;;6235367;23;20035;-47
2022/01/12 11:05:58;;;;;;;7.15;4.15;;;;;;;;;;6207693;23;20119;-46
2022/01/12 11:08:24;;;;;;;9.38;5.03;;;;;;;;;;6235030;23;20012;-47
2022/01/12 11:10:50;;;;;;;11.55;5.28;;;;;;;;;;6234894;23;20459;-47
2022/01/12 11:13:16;;;;;;;7.63;4.57;;;;;;;;;;6235328;23;20346;-48
2022/01/12 11:15:42;;;;;;;6.68;4.25;;;;;;;;;;6235328;23;20086;-47
2022/01/12 11:18:07;;;;;;;13.70;5.22;;;;;;;;;;6235400;23;20103;-45
2022/01/12 11:20:33;;;;;;;11.52;5.32;;;;;;;;;;6234853;23;20024;-45
2022/01/12 11:22:58;;;;;;;10.85;4.63;;;;;;;;;;6235954;23;20039;-45
2022/01/12 11:25:27;;;;;;;7.25;5.07;;;;;;;;;;6232951;23;20042;-45
2022/01/12 11:28:05;;;;;;;8.40;4.20;;;;;;;;;;6209249;23;20012;-48
2022/01/12 11:30:33;;;;;;;9.50;4.78;;;;;;;;;;6235838;23;20318;-47
2022/01/12 11:32:59;;;;;;;8.98;4.13;;;;;;;;;;6236154;23;20031;-49
2022/01/12 11:35:26;;;;;;;13.07;4.88;;;;;;;;;;6210177;23;20024;-46
2022/01/12 11:37:57;;;;;;;7.55;4.32;;;;;;;;;;6236610;23;20055;-46
2022/01/12 11:40:30;;;;;;;9.13;4.93;;;;;;;;;;6237899;23;20012;-47
2022/01/12 11:42:56;;;;;;;10.32;5.50;;;;;;;;;;6237511;23;20130;-47
2022/01/12 11:45:21;;;;;;;10.88;4.88;;;;;;;;;;6235913;23;20455;-46
2022/01/12 11:47:46;;;;;;;11.60;6.40;;;;;;;;;;6237838;23;20020;-46
2022/01/12 11:50:12;;;;;;;6.88;5.50;;;;;;;;;;6236250;23;20039;-47
2022/01/12 11:52:37;;;;;;;9.35;5.05;;;;;;;;;;6237146;23;20435;-46
2022/01/12 11:55:16;;;;;;;10.40;5.55;;;;;;;;;;6237267;23;20031;-46
2022/01/12 11:57:47;;;;;;;6.30;4.72;;;;;;;;;;6236131;23;20066;-46
2022/01/12 12:00:14;;;;;;;7.40;5.38;;;;;;;;;;6236926;23;20050;-46
2022/01/12 12:02:40;;;;;;;10.98;5.00;;;;;;;;;;6236710;23;20057;-46
2022/01/12 12:05:12;;;;;;;8.07;4.82;;;;;;;;;;6237064;23;20016;-49
2022/01/12 12:07:45;;;;;;;10.20;4.55;;;;;;;;;;6236232;23;20462;-46
2022/01/12 12:10:12;;;;;;;9.40;4.25;;;;;;;;;;6236280;23;20096;-46
2022/01/12 12:12:38;;;;;;;7.25;3.35;;;;;;;;;;6236226;23;20011;-46
2022/01/12 12:15:04;;;;;;;5.60;3.58;;;;;;;;;;6237464;23;20528;-46
2022/01/12 12:17:30;;;;;;;6.40;3.72;;;;;;;;;;6235494;23;20016;-45
2022/01/12 12:19:56;;;;;;;7.82;4.40;;;;;;;;;;6237400;23;20016;-46
2022/01/12 12:22:27;;;;;;;6.78;4.18;;;;;;;;;;6235607;23;20004;-49
2022/01/12 12:24:53;;;;;;;6.75;3.47;;;;;;;;;;6236971;23;20020;-46
2022/01/12 12:27:20;;;;;;;4.28;3.03;;;;;;;;;;6235482;23;20069;-45
2022/01/12 12:29:46;;;;;;;6.90;3.10;;;;;;;;;;6237096;23;20018;-47
2022/01/12 12:32:13;;;;;;;3.15;2.42;;;;;;;;;;6234886;23;20024;-46
2022/01/12 12:34:39;;;;;;;4.22;2.80;;;;;;;;;;6236741;23;20031;-47
2022/01/12 12:37:05;;;;;;;4.57;2.92;;;;;;;;;;6235973;23;20020;-47
2022/01/12 12:39:32;;;;;;;4.13;2.85;;;;;;;;;;6235904;23;20020;-50
2022/01/12 12:41:58;;;;;;;5.90;3.33;;;;;;;;;;6237320;23;20054;-49
2022/01/12 12:44:25;;;;;;;4.45;3.70;;;;;;;;;;6234987;23;20004;-50
2022/01/12 12:46:51;;;;;;;3.33;3.03;;;;;;;;;;6234990;23;20100;-49
2022/01/12 12:49:16;;;;;;;5.57;3.08;;;;;;;;;;6234361;23;20024;-50
2022/01/12 12:51:41;;;;;;;3.35;2.65;;;;;;;;;;6236593;23;20024;-50
2022/01/12 12:54:07;;;;;;;5.68;3.30;;;;;;;;;;6235919;23;20186;-49
2022/01/12 12:56:40;;;;;;;5.55;3.38;;;;;;;;;;6236505;23;20059;-50
2022/01/12 12:59:07;;;;;;;5.45;3.05;;;;;;;;;;6236469;23;20095;-45
2022/01/12 13:01:32;;;;;;;8.07;3.40;;;;;;;;;;6235708;23;20008;-47
2022/01/12 13:03:58;;;;;;;5.95;2.83;;;;;;;;;;6237135;23;20030;-49
2022/01/12 13:06:27;;;;;;;3.95;2.70;;;;;;;;;;6235298;23;20004;-47
2022/01/12 13:08:53;;;;;;;3.72;2.38;;;;;;;;;;6236499;23;20008;-46
2022/01/12 13:11:18;;;;;;;6.68;2.53;;;;;;;;;;6235105;23;20047;-45
2022/01/12 13:13:54;;;;;;;5.13;3.30;;;;;;;;;;6236819;23;20028;-47
2022/01/12 13:16:19;;;;;;;6.30;4.03;;;;;;;;;;6234662;23;20018;-45
2022/01/12 13:18:47;;;;;;;4.47;3.58;;;;;;;;;;6236394;23;20374;-46
2022/01/12 13:21:15;;;;;;;6.25;3.78;;;;;;;;;;6235806;23;20087;-46
2022/01/12 13:23:42;;;;;;;8.20;3.80;;;;;;;;;;6236339;23;20008;-47
2022/01/12 13:26:08;;;;;;;6.57;3.95;;;;;;;;;;6235489;23;20008;-47
2022/01/12 13:28:35;;;;;;;3.53;2.90;;;;;;;;;;6232285;23;20564;-48
2022/01/12 13:31:02;;;;;;;3.75;2.92;;;;;;;;;;6231426;23;20040;-46
2022/01/12 13:33:29;;;;;;;4.05;2.67;;;;;;;;;;6232005;23;20520;-45
2022/01/12 13:35:54;;;;;;;2.75;2.00;;;;;;;;;;6205729;23;20039;-48
2022/01/12 13:38:29;;;;;;;3.13;2.00;;;;;;;;;;6233657;23;20012;-47
2022/01/12 13:40:55;;;;;;;5.20;2.20;;;;;;;;;;6232383;23;20015;-46
2022/01/12 13:43:21;;;;;;;4.50;2.22;;;;;;;;;;6232880;23;20012;-51
2022/01/12 13:45:49;;;;;;;4.25;2.55;;;;;;;;;;6233369;23;20012;-51
2022/01/12 13:48:17;;;;;;;6.65;2.42;;;;;;;;;;6232085;23;20435;-47
2022/01/12 13:50:49;;;;;;;6.68;2.22;;;;;;;;;;6232750;23;20035;-45
2022/01/12 13:53:14;;;;;;;5.57;2.42;;;;;;;;;;6232383;23;20009;-44
2022/01/12 13:55:50;;;;;;;2.38;1.83;;;;;;;;;;6231371;23;20431;-45
2022/01/12 13:58:16;;;;;;;7.22;1.95;;;;;;;;;;6233441;23;20035;-45
2022/01/12 14:00:41;;;;;;;3.33;2.08;;;;;;;;;;6233335;23;20046;-45
2022/01/12 14:03:17;;;;;;;6.20;2.38;;;;;;;;;;6234255;23;20087;-44
2022/01/12 14:05:44;;;;;;;5.25;2.15;;;;;;;;;;6235077;23;20035;-45
2022/01/12 14:08:14;;;;;;;3.05;1.60;;;;;;;;;;6235143;23;20011;-43
2022/01/12 14:10:40;;;;;;;3.38;1.60;;;;;;;;;;6235851;23;20018;-44
2022/01/12 14:13:06;;;;;;;2.85;1.42;;;;;;;;;;6235640;23;20750;-44
2022/01/12 14:15:33;;;;;;;3.95;1.63;;;;;;;;;;6234923;23;20058;-45
2022/01/12 14:17:59;;;;;;;2.45;1.45;;;;;;;;;;6236243;23;20066;-44
2022/01/12 14:20:27;;;;;;;4.40;2.35;;;;;;;;;;6207170;23;20008;-49
2022/01/12 14:22:54;;;;;;;5.15;1.83;;;;;;;;;;6208650;23;20475;-48
2022/01/12 14:25:33;;;;;;;4.47;1.85;;;;;;;;;;6234687;23;20712;-48
2022/01/12 14:27:59;;;;;;;1.92;1.50;;;;;;;;;;6235728;23;20355;-45
2022/01/12 14:30:24;;;;;;;3.33;1.70;;;;;;;;;;6235644;23;20016;-45
2022/01/12 14:32:49;;;;;;;4.38;1.90;;;;;;;;;;6235093;23;20462;-46
2022/01/12 14:35:16;;;;;;;4.57;1.88;;;;;;;;;;6231510;23;20039;-44
2022/01/12 14:37:42;;;;;;;3.67;1.00;;;;;;;;;;6229364;23;20065;-45
2022/01/12 14:40:07;;;;;;;3.92;1.48;;;;;;;;;;6230746;23;20016;-45
2022/01/12 14:42:43;;;;;;;5.25;1.40;;;;;;;;;;6228406;23;20031;-45
2022/01/12 14:45:10;;;;;;;2.65;1.25;;;;;;;;;;6228627;23;20020;-45
2022/01/12 14:47:35;;;;;;;2.63;1.30;;;;;;;;;;6228926;23;20039;-44
2022/01/12 14:50:01;;;;;;;2.42;1.38;;;;;;;;;;6230360;23;20260;-44
2022/01/12 14:52:26;;;;;;;1.90;1.27;;;;;;;;;;6228824;23;20397;-47
2022/01/12 14:54:51;;;;;;;4.78;1.45;;;;;;;;;;6230665;23;20024;-46
2022/01/12 14:57:17;;;;;;;4.75;1.55;;;;;;;;;;6227813;23;20474;-48
2022/01/12 14:59:42;;;;;;;2.05;1.33;;;;;;;;;;6229413;23;20757;-45
2022/01/12 15:02:07;;;;;;;2.40;1.48;;;;;;;;;;6229567;23;20493;-47
2022/01/12 15:04:32;;;;;;;2.90;1.42;;;;;;;;;;6229379;23;20342;-45
2022/01/12 15:06:58;;;;;;;3.28;1.40;;;;;;;;;;6228835;23;20020;-46
2022/01/12 15:09:23;;;;;;;2.45;1.10;;;;;;;;;;6229012;23;20044;-46
2022/01/12 15:11:50;;;;;;;1.85;1.30;;;;;;;;;;6229276;23;20052;-45
2022/01/12 15:14:30;;;;;;;4.65;1.75;;;;;;;;;;6229590;23;20280;-47
2022/01/12 15:16:56;;;;;;;3.00;1.33;;;;;;;;;;6229051;23;20069;-45
2022/01/12 15:19:21;;;;;;;3.88;1.48;;;;;;;;;;6229347;23;20483;-48
2022/01/12 15:21:46;;;;;;;4.20;1.40;;;;;;;;;;6229761;23;20016;-46
2022/01/12 15:24:11;;;;;;;6.25;1.70;;;;;;;;;;6229494;23;20038;-44
2022/01/12 15:26:37;;;;;;;4.63;1.75;;;;;;;;;;6229295;23;20004;-47
2022/01/12 15:29:02;;;;;;;4.63;1.80;;;;;;;;;;6229867;23;20043;-46
2022/01/12 15:31:28;;;;;;;4.82;2.17;;;;;;;;;;6201051;23;20024;-45
2022/01/12 15:33:53;;;;;;;3.65;2.08;;;;;;;;;;6230389;23;20020;-46
2022/01/12 15:36:18;;;;;;;3.20;1.55;;;;;;;;;;6228456;23;20510;-47
2022/01/12 15:38:44;;;;;;;4.03;2.08;;;;;;;;;;6230192;23;20020;-46
2022/01/12 15:41:10;;;;;;;2.90;1.50;;;;;;;;;;6201653;23;20589;-45
2022/01/12 15:43:35;;;;;;;3.08;1.83;;;;;;;;;;6229693;23;20019;-47
2022/01/12 15:46:00;;;;;;;1.77;1.40;;;;;;;;;;6229429;23;20011;-47
2022/01/12 15:48:26;;;;;;;3.75;1.50;;;;;;;;;;6227913;23;20012;-46
2022/01/12 15:50:51;;;;;;;3.33;1.58;;;;;;;;;;6229468;23;20024;-46
2022/01/12 15:53:16;;;;;;;3.38;1.60;;;;;;;;;;6229105;23;20012;-47